Carrickmacross, Ireland
Current Conditions -  °F | °C
As of 1:30 PM on Thursday 30 Oct 2014 (Local Time) from EIDW Reporting Station
Broken Clouds Broken Clouds  
Wind Chill: 63°   Ceiling: 8000
Heat Index: 63°   Visibility: 6mi
Dew Point: 55°   Wind: 10mph
Humidity: 77%   Direction: 200°SSW
Pressure: 29.85"   Gusts: NA
Location:  53.98°N, 6.74°W
Report Text: EIDW 301330Z 20009KT 9999 FEW015 SCT025 BKN080 17/13 Q1011 NOSIG
Loading
Personal Weather Stations






























Interactive Weather Map
Tropical Storm Tracking
New forecast layout! Learn more

10-Day Weather Forecast

Advertisements
Track Severe Weather on mobile